Time;durP1;ratioP1;P1;durP2;ratioP2;P2;SDS_P1;SDS_P2;PMS_P1;PMS_P2;Temp;Humidity;BMP_temperature;BMP_pressure;BME280_temperature;BME280_humidity;BME280_pressure;Samples;Min_cycle;Max_cycle;Signal;HPM_P1;HPM_P2
2023/12/25 00:01:12;;;;;;;1.80;0.95;;;;;;;7.71;91.42;93781.47;5088924;28;20059;-69
2023/12/25 00:03:38;;;;;;;1.80;0.80;;;;;;;7.70;89.53;93769.00;5089270;28;20533;-69
2023/12/25 00:06:16;;;;;;;2.88;1.10;;;;;;;7.66;91.36;93777.19;5089504;28;20046;-69
2023/12/25 00:08:43;;;;;;;2.55;1.00;;;;;;;7.62;92.08;93773.72;5089323;28;20187;-70
2023/12/25 00:11:10;;;;;;;2.40;1.20;;;;;;;7.57;91.76;93779.63;5089396;28;20396;-69
2023/12/25 00:13:38;;;;;;;1.80;0.90;;;;;;;7.55;92.03;93793.66;5072379;28;20063;-68
2023/12/25 00:16:05;;;;;;;2.05;1.00;;;;;;;7.51;92.14;93794.88;5075980;28;20036;-68
2023/12/25 00:18:31;;;;;;;2.92;1.15;;;;;;;7.54;91.58;93813.16;5089218;28;20050;-68
2023/12/25 00:20:58;;;;;;;2.10;0.98;;;;;;;7.72;86.92;93794.72;5068484;28;20051;-68
2023/12/25 00:23:25;;;;;;;1.90;0.90;;;;;;;7.71;88.37;93822.47;5081212;28;20396;-68
2023/12/25 00:25:52;;;;;;;2.88;1.20;;;;;;;7.64;89.41;93822.47;5088902;28;20039;-69
2023/12/25 00:28:19;;;;;;;2.03;1.10;;;;;;;7.51;89.46;93822.94;5089571;28;20047;-68
2023/12/25 00:30:46;;;;;;;1.95;1.00;;;;;;;7.56;91.37;93838.91;5088594;28;20400;-68
2023/12/25 00:33:12;;;;;;;3.00;1.20;;;;;;;7.53;90.50;93834.25;5068478;28;20037;-69
2023/12/25 00:35:39;;;;;;;2.30;1.17;;;;;;;7.57;90.29;93832.28;5084183;28;20558;-68
2023/12/25 00:38:06;;;;;;;2.13;1.10;;;;;;;7.52;91.25;93843.59;5089828;28;20043;-70
2023/12/25 00:40:33;;;;;;;2.13;0.82;;;;;;;7.44;89.86;93827.66;5088957;28;20489;-66
2023/12/25 00:42:59;;;;;;;3.63;1.88;;;;;;;7.39;90.66;93826.91;5089502;28;20101;-68
2023/12/25 00:45:26;;;;;;;2.20;1.10;;;;;;;7.37;90.28;93826.50;5089226;28;20397;-68
2023/12/25 00:47:53;;;;;;;2.03;0.93;;;;;;;7.45;89.67;93843.66;5070914;28;20059;-69
2023/12/25 00:50:20;;;;;;;3.70;1.13;;;;;;;7.43;89.28;93840.53;5089381;28;20481;-70
2023/12/25 00:52:47;;;;;;;2.53;1.20;;;;;;;7.36;89.96;93837.81;5088763;28;20405;-68
2023/12/25 00:55:14;;;;;;;1.85;1.02;;;;;;;7.39;90.16;93845.25;5089444;28;20485;-68
2023/12/25 00:57:41;;;;;;;2.00;1.10;;;;;;;7.29;90.47;93840.59;5088751;28;20069;-68
2023/12/25 01:00:08;;;;;;;2.30;1.20;;;;;;;7.19;91.81;93828.53;5089413;28;20396;-68
2023/12/25 01:02:35;;;;;;;3.90;1.80;;;;;;;7.18;92.49;93826.97;5088648;28;20058;-68
2023/12/25 01:05:02;;;;;;;2.28;1.17;;;;;;;7.14;91.24;93823.50;5089570;28;20388;-68
2023/12/25 01:07:29;;;;;;;3.03;1.00;;;;;;;7.35;87.77;93811.72;5089308;28;20424;-69
2023/12/25 01:09:56;;;;;;;2.40;1.30;;;;;;;7.38;87.17;93808.97;5088488;28;20054;-68
2023/12/25 01:12:23;;;;;;;3.40;1.33;;;;;;;7.32;87.75;93813.28;5081636;28;20041;-68
2023/12/25 01:14:50;;;;;;;1.90;1.00;;;;;;;7.20;88.20;93811.00;5079276;28;20160;-69
2023/12/25 01:17:17;;;;;;;2.05;1.00;;;;;;;7.21;87.83;93815.28;5085073;28;20096;-68
2023/12/25 01:19:44;;;;;;;1.90;0.90;;;;;;;7.23;85.77;93804.75;5088665;28;20036;-69
2023/12/25 01:22:11;;;;;;;2.10;1.10;;;;;;;7.18;86.63;93821.53;5088871;28;20040;-68
2023/12/25 01:24:37;;;;;;;1.97;0.90;;;;;;;7.09;87.52;93813.00;5070746;28;20044;-68
2023/12/25 01:27:04;;;;;;;4.15;2.13;;;;;;;7.00;86.82;93814.19;5089244;28;20044;-68
2023/12/25 01:29:31;;;;;;;2.72;1.02;;;;;;;7.11;85.71;93811.41;5070504;28;20111;-68
2023/12/25 01:31:58;;;;;;;1.90;1.05;;;;;;;7.15;82.28;93808.69;5089342;28;20396;-69
2023/12/25 01:34:25;;;;;;;2.17;1.10;;;;;;;7.25;80.62;93802.41;5088932;28;20044;-68
2023/12/25 01:36:51;;;;;;;3.40;0.97;;;;;;;7.20;82.11;93813.72;5088700;28;20122;-70
2023/12/25 01:39:18;;;;;;;2.10;0.90;;;;;;;7.12;81.44;93799.34;5067752;28;20045;-68
2023/12/25 01:41:45;;;;;;;1.90;1.10;;;;;;;7.09;80.42;93807.53;5083438;28;20059;-69
2023/12/25 01:44:12;;;;;;;2.45;1.10;;;;;;;7.11;80.53;93813.38;5092218;28;20096;-68
2023/12/25 01:46:49;;;;;;;4.25;1.60;;;;;;;7.15;79.43;93809.44;5074063;28;20036;-68
2023/12/25 01:49:16;;;;;;;2.47;1.00;;;;;;;7.32;76.72;93802.34;5092550;28;20036;-70
2023/12/25 01:51:43;;;;;;;1.90;0.90;;;;;;;7.30;76.20;93803.94;5092143;28;20067;-68
2023/12/25 01:54:10;;;;;;;1.75;0.90;;;;;;;7.27;76.24;93805.50;5092448;28;20044;-68
2023/12/25 01:56:37;;;;;;;3.30;1.05;;;;;;;7.26;75.16;93814.09;5092118;28;20047;-68
2023/12/25 01:59:03;;;;;;;2.53;0.98;;;;;;;7.22;74.60;93810.59;5092146;28;20036;-68
2023/12/25 02:01:30;;;;;;;2.00;0.90;;;;;;;7.17;74.79;93809.06;5091902;28;20048;-68
2023/12/25 02:03:57;;;;;;;2.15;1.17;;;;;;;7.14;75.38;93805.19;5091931;28;20038;-69
2023/12/25 02:06:24;;;;;;;1.92;0.88;;;;;;;7.11;75.05;93794.28;5092229;28;20032;-68
2023/12/25 02:08:52;;;;;;;2.22;1.13;;;;;;;7.02;75.63;93788.44;5091694;28;20066;-68
2023/12/25 02:11:19;;;;;;;2.47;1.13;;;;;;;7.13;72.04;93800.13;5092166;28;20044;-68
2023/12/25 02:13:45;;;;;;;1.97;0.90;;;;;;;7.18;70.39;93792.31;5073566;28;20145;-69
2023/12/25 02:16:12;;;;;;;2.45;1.05;;;;;;;7.34;67.82;93782.84;5078956;28;20044;-68
2023/12/25 02:18:39;;;;;;;2.65;1.20;;;;;;;7.22;68.32;93786.03;5091715;28;20036;-70
2023/12/25 02:21:06;;;;;;;2.42;1.08;;;;;;;7.18;67.61;93775.13;5091947;28;20052;-68
2023/12/25 02:23:37;;;;;;;2.03;1.00;;;;;;;7.25;65.59;93786.03;5091435;28;20048;-66
2023/12/25 02:26:06;;;;;;;2.07;1.10;;;;;;;7.24;65.40;93775.50;5091879;28;20036;-68
2023/12/25 02:28:33;;;;;;;2.85;1.00;;;;;;;7.21;64.91;93763.44;5091383;28;20119;-68
2023/12/25 02:31:00;;;;;;;1.92;1.05;;;;;;;7.35;63.23;93768.81;5091560;28;20044;-69
2023/12/25 02:33:26;;;;;;;4.60;2.35;;;;;;;7.34;63.95;93766.47;5070289;28;20044;-68
2023/12/25 02:35:54;;;;;;;2.20;0.98;;;;;;;7.30;62.04;93769.22;5088024;28;20096;-68
2023/12/25 02:38:21;;;;;;;3.13;1.00;;;;;;;7.26;63.33;93773.91;5091663;28;20043;-68
2023/12/25 02:40:47;;;;;;;3.95;0.95;;;;;;;7.17;63.30;93774.34;5073039;28;20046;-69
2023/12/25 02:43:14;;;;;;;2.25;0.90;;;;;;;7.18;63.66;93775.13;5091839;28;20032;-68
2023/12/25 02:45:41;;;;;;;2.60;1.02;;;;;;;7.19;62.61;93774.75;5090806;28;20110;-68
2023/12/25 02:48:07;;;;;;;2.40;1.00;;;;;;;7.28;60.28;93768.06;5070486;28;20045;-68
2023/12/25 02:50:34;;;;;;;2.27;1.00;;;;;;;7.28;60.58;93768.06;5081690;28;20062;-68
2023/12/25 02:53:03;;;;;;;2.75;0.80;;;;;;;7.28;60.09;93768.84;5090829;28;20048;-69
2023/12/25 02:55:30;;;;;;;1.80;0.90;;;;;;;7.27;60.60;93764.56;5090795;28;20032;-66
2023/12/25 02:57:57;;;;;;;2.08;0.88;;;;;;;7.36;59.70;93775.03;5091114;28;20065;-68
2023/12/25 03:00:24;;;;;;;3.50;0.90;;;;;;;7.30;59.19;93768.44;5091331;28;20044;-69
2023/12/25 03:02:51;;;;;;;2.27;0.70;;;;;;;7.25;59.30;93763.41;5090416;28;20048;-68
2023/12/25 03:05:18;;;;;;;2.88;0.90;;;;;;;7.35;58.44;93763.34;5069656;28;20154;-68
2023/12/25 03:07:45;;;;;;;1.92;1.08;;;;;;;7.39;58.19;93761.38;5088957;28;20047;-68
2023/12/25 03:10:11;;;;;;;2.00;0.90;;;;;;;7.39;56.81;93747.72;5090753;28;20044;-69
2023/12/25 03:12:38;;;;;;;1.80;0.98;;;;;;;7.48;56.22;93749.22;5080872;28;20413;-68
2023/12/25 03:15:05;;;;;;;2.83;0.90;;;;;;;7.50;56.19;93753.09;5053174;28;20379;-68
2023/12/25 03:17:32;;;;;;;2.10;1.00;;;;;;;7.51;55.59;93741.03;5088220;28;20107;-66
2023/12/25 03:19:59;;;;;;;2.10;0.98;;;;;;;7.58;54.42;93742.91;5089729;28;20042;-68
2023/12/25 03:22:26;;;;;;;2.03;0.95;;;;;;;7.54;54.29;93745.66;5090348;28;20217;-68
2023/12/25 03:24:53;;;;;;;2.00;0.90;;;;;;;7.47;54.25;93750.44;5090259;28;20058;-68
2023/12/25 03:27:19;;;;;;;1.70;0.87;;;;;;;7.51;53.73;93748.44;5090600;28;20055;-70
2023/12/25 03:29:46;;;;;;;2.50;1.02;;;;;;;7.49;53.82;93745.34;5090290;28;20052;-68
2023/12/25 03:32:13;;;;;;;2.28;0.80;;;;;;;7.47;53.37;93742.22;5090501;28;20044;-68
2023/12/25 03:34:49;;;;;;;1.95;0.80;;;;;;;7.42;53.39;93737.19;5090116;28;20121;-68
2023/12/25 03:37:16;;;;;;;1.90;1.02;;;;;;;7.35;53.68;93736.06;5090703;28;20401;-68
2023/12/25 03:39:43;;;;;;;1.67;0.80;;;;;;;7.43;54.01;93741.47;5089864;28;20050;-68
2023/12/25 03:42:10;;;;;;;3.30;1.00;;;;;;;7.39;53.44;93749.69;5090459;28;20048;-68
2023/12/25 03:44:37;;;;;;;2.00;0.90;;;;;;;7.46;52.80;93737.94;5089958;28;20040;-69
2023/12/25 03:47:04;;;;;;;1.95;0.80;;;;;;;7.51;52.72;93754.69;5090498;28;20035;-68
2023/12/25 03:49:30;;;;;;;2.80;0.90;;;;;;;7.56;52.66;93742.53;5089664;28;20046;-66
2023/12/25 03:51:58;;;;;;;2.00;0.97;;;;;;;7.52;51.63;93741.78;5072204;28;20518;-69
2023/12/25 03:54:24;;;;;;;2.38;1.00;;;;;;;7.59;51.24;93723.41;5090179;28;20039;-68
2023/12/25 03:56:51;;;;;;;1.60;0.70;;;;;;;7.58;50.86;93740.19;5089822;28;20110;-68
2023/12/25 03:59:18;;;;;;;1.90;0.85;;;;;;;7.57;50.80;93723.03;5090087;28;20040;-68
2023/12/25 04:01:45;;;;;;;1.80;0.90;;;;;;;7.54;51.21;93718.38;5089703;28;20055;-68
2023/12/25 04:04:12;;;;;;;2.03;1.00;;;;;;;7.52;50.74;93722.69;5089486;28;20137;-69
2023/12/25 04:06:38;;;;;;;2.00;0.90;;;;;;;7.56;50.94;93717.97;5089426;28;20032;-68
2023/12/25 04:09:05;;;;;;;1.80;0.80;;;;;;;7.58;50.34;93718.34;5090012;28;20073;-70
2023/12/25 04:11:32;;;;;;;2.35;0.90;;;;;;;7.60;50.18;93724.19;5089668;28;20419;-68
2023/12/25 04:13:59;;;;;;;2.05;0.90;;;;;;;7.49;50.58;93716.06;5089790;28;20108;-68
2023/12/25 04:16:27;;;;;;;2.07;1.03;;;;;;;7.60;49.74;93719.50;5068417;28;20047;-68
2023/12/25 04:18:54;;;;;;;2.00;0.80;;;;;;;7.58;50.04;93721.84;5086551;28;20101;-68
2023/12/25 04:21:23;;;;;;;1.90;1.02;;;;;;;7.56;50.64;93723.44;5089779;28;20405;-68
2023/12/25 04:23:51;;;;;;;1.77;0.90;;;;;;;7.46;50.88;93733.25;5089120;28;20036;-69
2023/12/25 04:26:23;;;;;;;2.00;1.00;;;;;;;7.48;51.00;93739.09;5089674;28;20044;-69
2023/12/25 04:28:50;;;;;;;1.83;1.00;;;;;;;7.36;52.18;93734.88;5089077;28;20048;-68
2023/12/25 04:31:18;;;;;;;2.00;0.95;;;;;;;7.38;52.45;93732.53;5089636;28;20052;-68
2023/12/25 04:33:44;;;;;;;3.20;1.10;;;;;;;7.48;52.06;93728.16;5088557;28;20048;-68
2023/12/25 04:36:12;;;;;;;2.58;0.90;;;;;;;7.56;50.98;93723.44;5089592;28;20040;-68
2023/12/25 04:38:38;;;;;;;1.80;0.98;;;;;;;7.58;52.12;93727.31;5067397;28;20048;-68
2023/12/25 04:41:06;;;;;;;1.83;0.80;;;;;;;7.47;52.35;93728.59;5081767;28;20040;-68
2023/12/25 04:43:32;;;;;;;1.77;0.80;;;;;;;7.54;51.88;93712.13;5067383;28;20040;-68
2023/12/25 04:46:02;;;;;;;1.90;0.95;;;;;;;7.49;52.86;93721.53;5089653;28;20388;-68
2023/12/25 04:48:29;;;;;;;2.25;1.00;;;;;;;7.47;52.32;93723.13;5068122;28;20049;-68
2023/12/25 04:50:58;;;;;;;2.28;0.93;;;;;;;7.54;51.86;93720.31;5082065;28;20831;-68
2023/12/25 04:53:25;;;;;;;1.97;1.03;;;;;;;7.49;52.15;93707.88;5076439;28;20395;-68
2023/12/25 04:55:52;;;;;;;1.98;0.80;;;;;;;7.41;52.78;93709.13;5068072;28;20037;-68
2023/12/25 04:58:19;;;;;;;2.08;0.98;;;;;;;7.43;52.55;93695.06;5089610;28;20078;-68
2023/12/25 05:00:46;;;;;;;2.40;0.90;;;;;;;7.53;51.53;93696.94;5088642;28;20412;-68
2023/12/25 05:03:13;;;;;;;2.10;0.90;;;;;;;7.51;51.16;93699.31;5089325;28;20446;-70
2023/12/25 05:05:40;;;;;;;1.80;0.90;;;;;;;7.51;51.09;93697.34;5088829;28;20051;-68
2023/12/25 05:08:07;;;;;;;2.20;0.70;;;;;;;7.60;50.48;93700.38;5089268;28;20044;-68
2023/12/25 05:10:33;;;;;;;3.72;0.88;;;;;;;7.62;50.44;93699.97;5088793;28;20040;-68
2023/12/25 05:13:00;;;;;;;1.80;0.90;;;;;;;7.60;49.99;93692.19;5089239;28;20075;-68
2023/12/25 05:15:28;;;;;;;2.28;1.02;;;;;;;7.58;50.96;93696.50;5089354;28;20391;-68
2023/12/25 05:17:55;;;;;;;1.83;0.87;;;;;;;7.64;49.77;93703.09;5091625;28;20040;-68
2023/12/25 05:20:22;;;;;;;1.80;0.80;;;;;;;7.64;50.13;93702.31;5079328;28;20040;-68
2023/12/25 05:22:49;;;;;;;2.67;0.90;;;;;;;7.69;48.94;93701.91;5091320;28;20412;-68
2023/12/25 05:25:15;;;;;;;2.35;1.10;;;;;;;7.66;49.51;93711.66;5092679;28;20040;-68
2023/12/25 05:27:42;;;;;;;2.78;1.05;;;;;;;7.66;48.70;93714.38;5091538;28;20044;-68
2023/12/25 05:30:10;;;;;;;2.27;1.07;;;;;;;7.61;48.88;93723.03;5092585;28;20040;-69
2023/12/25 05:32:38;;;;;;;2.00;0.93;;;;;;;7.65;48.39;93717.53;5092031;28;20044;-68
2023/12/25 05:35:05;;;;;;;2.40;1.00;;;;;;;7.60;49.45;93738.59;5092961;28;20537;-69
2023/12/25 05:37:32;;;;;;;2.13;0.90;;;;;;;7.57;48.54;93725.00;5092446;28;20073;-68
2023/12/25 05:40:00;;;;;;;2.75;1.08;;;;;;;7.62;47.73;93723.78;5092640;28;20076;-68
2023/12/25 05:42:27;;;;;;;2.23;1.10;;;;;;;7.67;47.39;93728.84;5085375;28;20054;-68
2023/12/25 05:44:53;;;;;;;1.88;0.85;;;;;;;7.65;47.78;93731.97;5078671;28;20408;-68
2023/12/25 05:47:20;;;;;;;2.67;1.08;;;;;;;7.60;46.96;93735.09;5092651;28;20137;-68
2023/12/25 05:49:47;;;;;;;3.83;0.82;;;;;;;7.59;46.67;93728.88;5092173;28;20100;-68
2023/12/25 05:52:14;;;;;;;1.92;1.10;;;;;;;7.54;46.77;93732.00;5072128;28;20041;-69
2023/12/25 05:54:42;;;;;;;2.67;1.10;;;;;;;7.46;46.10;93735.97;5092099;28;20421;-68
2023/12/25 05:57:09;;;;;;;2.00;1.00;;;;;;;7.50;45.79;93742.19;5072848;28;20044;-68
2023/12/25 05:59:37;;;;;;;2.15;1.13;;;;;;;7.43;45.65;93741.47;5091475;28;20039;-68
2023/12/25 06:02:05;;;;;;;2.38;0.80;;;;;;;7.36;47.07;93751.28;5091482;28;20764;-68
2023/12/25 06:04:31;;;;;;;1.92;1.00;;;;;;;7.47;44.35;93744.97;5091440;28;20050;-68
2023/12/25 06:06:58;;;;;;;2.00;1.00;;;;;;;7.40;44.88;93740.31;5092487;28;20044;-68
2023/12/25 06:09:26;;;;;;;2.15;1.20;;;;;;;7.36;46.28;93734.88;5091840;28;20112;-69
2023/12/25 06:11:53;;;;;;;2.50;1.40;;;;;;;7.23;46.29;93739.25;5091659;28;20484;-69
2023/12/25 06:14:19;;;;;;;2.08;1.05;;;;;;;7.15;45.37;93733.03;5073895;28;20040;-69
2023/12/25 06:16:46;;;;;;;2.30;1.10;;;;;;;7.22;44.18;93731.44;5091552;28;20044;-68
2023/12/25 06:19:13;;;;;;;1.80;0.93;;;;;;;7.28;44.04;93735.31;5091768;28;20100;-70
2023/12/25 06:21:40;;;;;;;1.95;1.08;;;;;;;7.28;43.78;93735.31;5091114;28;20677;-70
2023/12/25 06:24:07;;;;;;;2.25;1.10;;;;;;;7.43;41.53;93744.97;5091920;28;20399;-69
2023/12/25 06:26:34;;;;;;;2.60;1.48;;;;;;;7.42;42.36;93742.63;5090230;28;20040;-69
2023/12/25 06:29:01;;;;;;;2.20;1.08;;;;;;;7.40;41.45;93743.84;5070350;28;20041;-68
2023/12/25 06:31:28;;;;;;;2.57;1.20;;;;;;;7.34;41.65;93747.38;5091586;28;20470;-69
2023/12/25 06:33:54;;;;;;;3.22;1.63;;;;;;;7.29;42.06;93764.94;5069939;28;20049;-69
2023/12/25 06:36:21;;;;;;;2.63;1.23;;;;;;;7.30;41.18;93754.78;5091583;28;20044;-69
2023/12/25 06:38:48;;;;;;;2.35;1.13;;;;;;;7.28;41.93;93749.72;5091081;28;20047;-71
2023/12/25 06:41:15;;;;;;;2.10;1.00;;;;;;;7.28;41.62;93738.03;5078278;28;20472;-69
2023/12/25 06:43:42;;;;;;;2.73;1.40;;;;;;;7.23;41.94;93743.94;5073118;28;20038;-68
2023/12/25 06:46:08;;;;;;;2.22;1.30;;;;;;;7.22;41.59;93751.31;5091509;28;20044;-68
2023/12/25 06:48:35;;;;;;;2.63;1.20;;;;;;;7.22;40.73;93739.63;5090550;28;20048;-69
2023/12/25 06:51:02;;;;;;;3.15;1.30;;;;;;;7.18;42.14;93747.84;5091716;28;20048;-69
2023/12/25 06:53:29;;;;;;;2.58;1.30;;;;;;;7.17;40.94;93736.16;5091230;28;20036;-68
2023/12/25 06:55:56;;;;;;;2.63;1.37;;;;;;;7.13;40.49;93732.66;5090254;28;20835;-68
2023/12/25 06:58:22;;;;;;;2.15;0.90;;;;;;;7.13;40.52;93729.94;5091120;28;20039;-68
2023/12/25 07:00:49;;;;;;;2.85;1.10;;;;;;;7.14;40.67;93738.88;5090636;28;20379;-69
2023/12/25 07:03:16;;;;;;;2.00;1.05;;;;;;;7.26;39.77;93745.84;5090787;28;20044;-68
2023/12/25 07:05:43;;;;;;;2.40;1.38;;;;;;;7.32;40.40;93742.28;5069565;28;20051;-68
2023/12/25 07:08:09;;;;;;;2.20;1.30;;;;;;;7.24;40.96;93743.50;5085758;28;20116;-69
2023/12/25 07:10:36;;;;;;;1.88;0.82;;;;;;;7.23;40.56;93755.63;5090811;28;20040;-68
2023/12/25 07:13:03;;;;;;;1.98;0.90;;;;;;;7.17;40.75;93760.72;5090994;28;20046;-68
2023/12/25 07:15:32;;;;;;;1.95;1.00;;;;;;;7.10;40.93;93751.78;5084245;28;20397;-68
2023/12/25 07:17:59;;;;;;;2.03;1.00;;;;;;;7.22;40.68;93761.47;5070412;28;20459;-68
2023/12/25 07:20:26;;;;;;;2.60;1.40;;;;;;;7.10;41.12;93760.75;5086722;28;20413;-68
2023/12/25 07:22:53;;;;;;;2.40;1.10;;;;;;;7.08;40.96;93757.63;5090280;28;20400;-68
2023/12/25 07:25:20;;;;;;;2.45;1.30;;;;;;;7.08;41.14;93765.03;5090378;28;20058;-69
2023/12/25 07:27:47;;;;;;;2.47;1.10;;;;;;;7.10;42.42;93754.50;5072268;28;20496;-68
2023/12/25 07:30:14;;;;;;;2.22;1.13;;;;;;;7.11;41.56;93756.06;5090367;28;20052;-68
2023/12/25 07:32:41;;;;;;;3.83;1.90;;;;;;;7.05;41.03;93766.63;5089828;28;20051;-69
2023/12/25 07:35:08;;;;;;;3.97;1.65;;;;;;;7.02;41.72;93772.09;5090641;28;20387;-70
2023/12/25 07:37:36;;;;;;;2.40;1.30;;;;;;;7.10;40.95;93779.88;5089669;28;20374;-69
2023/12/25 07:40:03;;;;;;;2.20;1.20;;;;;;;7.15;40.68;93781.41;5089563;28;20044;-68
2023/12/25 07:42:30;;;;;;;2.00;1.10;;;;;;;7.11;41.73;93780.63;5068969;28;20443;-68
2023/12/25 07:44:57;;;;;;;2.47;1.00;;;;;;;7.11;40.75;93792.31;5083064;28;20792;-68
2023/12/25 07:47:24;;;;;;;1.95;0.93;;;;;;;7.14;41.24;93798.94;5090457;28;20032;-68
2023/12/25 07:49:52;;;;;;;3.00;1.63;;;;;;;7.08;41.32;93798.56;5089549;28;20051;-69
2023/12/25 07:52:18;;;;;;;2.22;1.30;;;;;;;7.12;40.93;93804.81;5090075;28;20399;-69
2023/12/25 07:54:45;;;;;;;3.10;1.30;;;;;;;7.16;42.03;93823.88;5089694;28;20038;-68
2023/12/25 07:57:12;;;;;;;3.00;1.50;;;;;;;6.96;41.55;93818.09;5090083;28;20485;-68
2023/12/25 07:59:38;;;;;;;2.30;1.35;;;;;;;7.03;42.12;93804.44;5089879;28;20058;-68
2023/12/25 08:02:05;;;;;;;3.63;1.40;;;;;;;6.94;42.67;93785.78;5053361;28;20082;-68
2023/12/25 08:04:32;;;;;;;3.45;1.73;;;;;;;6.87;43.18;93776.81;5089284;28;20048;-68
2023/12/25 08:06:59;;;;;;;2.90;1.20;;;;;;;6.94;42.82;93777.59;5090206;28;20050;-68
2023/12/25 08:09:25;;;;;;;2.47;1.27;;;;;;;7.02;42.70;93788.44;5090123;28;20040;-68
2023/12/25 08:11:52;;;;;;;2.83;1.20;;;;;;;7.00;41.76;93783.38;5089603;28;20042;-67
2023/12/25 08:14:19;;;;;;;3.10;1.40;;;;;;;7.08;42.25;93793.09;5068236;28;20508;-68
2023/12/25 08:16:46;;;;;;;3.67;1.50;;;;;;;7.11;42.13;93807.91;5054579;28;20083;-69
2023/12/25 08:19:12;;;;;;;3.05;1.80;;;;;;;7.05;42.62;93799.34;5075562;28;20496;-68
2023/12/25 08:21:40;;;;;;;4.10;2.17;;;;;;;7.08;42.27;93820.38;5089262;28;20032;-70
2023/12/25 08:24:07;;;;;;;3.65;1.90;;;;;;;7.15;41.74;93839.47;5089802;28;20511;-68
2023/12/25 08:26:35;;;;;;;3.20;1.50;;;;;;;7.11;42.34;93843.41;5089137;28;20047;-66
2023/12/25 08:29:02;;;;;;;8.18;3.85;;;;;;;7.10;42.20;93845.34;5089714;28;20051;-68
2023/12/25 08:31:28;;;;;;;3.33;1.65;;;;;;;7.15;43.01;93847.66;5068492;28;20036;-68
2023/12/25 08:33:55;;;;;;;4.80;2.33;;;;;;;7.20;42.53;93841.81;5096524;28;20071;-68
2023/12/25 08:36:22;;;;;;;4.10;1.70;;;;;;;7.22;42.16;93835.16;5089630;28;20040;-69
2023/12/25 08:38:49;;;;;;;16.98;11.05;;;;;;;7.24;43.46;93830.84;5088666;28;20560;-68
2023/12/25 08:41:16;;;;;;;3.50;1.70;;;;;;;7.23;43.99;93831.28;5078264;28;20411;-68
2023/12/25 08:43:42;;;;;;;6.75;4.63;;;;;;;7.10;43.57;93828.97;5088962;28;20395;-68
2023/12/25 08:46:16;;;;;;;3.50;2.17;;;;;;;7.20;42.99;93828.16;5089345;28;20048;-69
2023/12/25 08:48:43;;;;;;;9.65;5.85;;;;;;;7.15;44.36;93830.50;5088951;28;20047;-68
2023/12/25 08:51:10;;;;;;;2.78;1.60;;;;;;;7.22;44.34;93837.88;5092650;28;20055;-68
2023/12/25 08:53:37;;;;;;;10.18;5.40;;;;;;;7.27;44.33;93840.22;5093085;28;20537;-68
2023/12/25 08:56:04;;;;;;;3.67;1.67;;;;;;;7.36;44.10;93840.56;5093519;28;20553;-68
2023/12/25 08:58:31;;;;;;;2.60;1.50;;;;;;;7.45;44.17;93865.50;5093258;28;20440;-68
2023/12/25 09:00:58;;;;;;;4.97;2.83;;;;;;;7.40;44.23;93863.97;5075257;28;20040;-68
2023/12/25 09:03:25;;;;;;;8.75;3.90;;;;;;;7.37;44.70;93881.13;5093326;28;20036;-68
2023/12/25 09:05:51;;;;;;;2.78;1.40;;;;;;;7.10;44.85;93894.47;5092700;28;20036;-68
2023/12/25 09:08:21;;;;;;;3.17;1.73;;;;;;;7.35;43.83;93897.13;5093367;28;20046;-68
2023/12/25 09:10:48;;;;;;;2.50;1.33;;;;;;;7.46;44.34;93888.88;5092705;28;20044;-69
2023/12/25 09:13:16;;;;;;;3.00;1.63;;;;;;;7.48;44.19;93886.53;5092836;28;20044;-68
2023/12/25 09:15:43;;;;;;;2.75;1.38;;;;;;;7.63;44.93;93872.84;5092760;28;20044;-68
2023/12/25 09:18:10;;;;;;;2.30;1.00;;;;;;;7.56;44.61;93879.84;5093268;28;20459;-68
2023/12/25 09:20:37;;;;;;;3.42;1.55;;;;;;;7.74;43.97;93879.00;5079688;28;20044;-68
2023/12/25 09:23:04;;;;;;;2.43;1.33;;;;;;;7.78;44.25;93874.31;5093096;28;20046;-69
2023/12/25 09:25:30;;;;;;;2.63;1.00;;;;;;;7.72;44.16;93881.34;5092958;28;20048;-68
2023/12/25 09:27:57;;;;;;;3.35;1.60;;;;;;;7.72;45.02;93873.16;5074548;28;20780;-68
2023/12/25 09:30:24;;;;;;;2.88;1.65;;;;;;;7.68;45.30;93877.88;5092842;28;20395;-68
2023/12/25 09:32:51;;;;;;;2.65;1.30;;;;;;;7.75;45.28;93878.63;5092096;28;20113;-68
2023/12/25 09:35:18;;;;;;;3.70;1.30;;;;;;;7.86;45.13;93881.28;5093051;28;20057;-69
2023/12/25 09:37:45;;;;;;;2.65;1.30;;;;;;;7.89;45.40;93882.47;5092168;28;20081;-68
2023/12/25 09:40:12;;;;;;;3.42;1.90;;;;;;;7.98;46.11;93883.56;5092693;28;20156;-69
2023/12/25 09:42:39;;;;;;;3.38;1.50;;;;;;;8.22;45.62;93869.34;5092161;28;20047;-68
2023/12/25 09:45:09;;;;;;;3.88;1.40;;;;;;;8.30;45.13;93882.56;5075006;28;20396;-68
2023/12/25 09:47:37;;;;;;;3.63;1.83;;;;;;;8.52;45.66;93882.44;5092101;28;20446;-68
2023/12/25 09:50:05;;;;;;;2.58;1.13;;;;;;;8.64;45.24;93883.91;5092433;28;20394;-68
2023/12/25 09:52:32;;;;;;;3.22;1.40;;;;;;;8.57;45.83;93891.00;5092058;28;20116;-66
2023/12/25 09:54:59;;;;;;;2.53;1.10;;;;;;;8.46;45.85;93882.09;5092166;28;20088;-69
2023/12/25 09:57:29;;;;;;;2.65;1.40;;;;;;;8.58;47.13;93876.13;5092014;28;20075;-69
2023/12/25 09:59:57;;;;;;;4.27;1.80;;;;;;;8.56;46.93;93883.19;5091650;28;20086;-68
2023/12/25 10:02:27;;;;;;;2.67;1.30;;;;;;;8.88;47.00;93888.38;5091278;28;20036;-68
2023/12/25 10:04:55;;;;;;;2.33;1.10;;;;;;;9.12;45.80;93875.63;5091734;28;20054;-69
2023/12/25 10:07:22;;;;;;;2.05;1.02;;;;;;;8.93;46.62;93873.47;5092115;28;20395;-68
2023/12/25 10:09:53;;;;;;;2.30;1.10;;;;;;;8.91;46.96;93884.81;5091674;28;20420;-68
2023/12/25 10:12:20;;;;;;;3.13;1.20;;;;;;;8.95;46.38;93877.38;5092015;28;20044;-68
2023/12/25 10:14:46;;;;;;;6.13;3.63;;;;;;;9.49;45.73;93874.03;5091643;28;20344;-69
2023/12/25 10:17:13;;;;;;;4.53;1.90;;;;;;;9.47;45.87;93868.19;5091938;28;20488;-69
2023/12/25 10:19:57;;;;;;;2.50;1.40;;;;;;;10.14;45.34;93871.25;5079315;28;20036;-69
2023/12/25 10:22:31;;;;;;;2.40;1.15;;;;;;;9.95;45.79;93877.41;5075067;28;20048;-68
2023/12/25 10:25:06;;;;;;;3.27;1.30;;;;;;;9.96;46.18;93867.97;5090969;28;20067;-69
2023/12/25 10:27:34;;;;;;;3.25;1.42;;;;;;;10.13;46.35;93863.44;5091367;28;20036;-68
2023/12/25 10:30:03;;;;;;;2.90;1.50;;;;;;;11.10;45.44;93870.91;5091843;28;20044;-69
2023/12/25 10:32:31;;;;;;;3.97;2.00;;;;;;;11.58;43.93;93869.59;5091231;28;20493;-68
2023/12/25 10:35:13;;;;;;;3.00;1.40;;;;;;;11.78;43.11;93877.84;5080783;28;20530;-70
2023/12/25 10:37:41;;;;;;;5.00;2.80;;;;;;;14.28;39.92;93866.50;5090461;28;20067;-69
2023/12/25 10:40:27;;;;;;;3.67;1.90;;;;;;;13.31;40.55;93860.19;5091701;28;20040;-70
2023/12/25 10:42:55;;;;;;;2.53;1.15;;;;;;;11.85;42.76;93863.19;5069859;28;20045;-70
2023/12/25 10:45:27;;;;;;;2.95;1.25;;;;;;;11.26;44.57;93861.22;5084877;28;20071;-69
2023/12/25 10:47:55;;;;;;;3.10;1.40;;;;;;;11.10;46.40;93850.91;5091175;28;20404;-69
2023/12/25 10:50:25;;;;;;;2.63;1.10;;;;;;;10.71;47.67;93855.13;5091252;28;20443;-69
2023/12/25 10:53:16;;;;;;;2.97;1.30;;;;;;;10.79;48.12;93849.09;5091019;28;20044;-69
2023/12/25 10:55:44;;;;;;;2.58;1.20;;;;;;;11.16;48.14;93846.47;5090787;28;20040;-69
2023/12/25 10:58:12;;;;;;;4.35;1.40;;;;;;;10.60;49.14;93838.81;5091057;28;20051;-69
2023/12/25 11:00:42;;;;;;;4.10;1.50;;;;;;;10.63;50.30;93837.25;5090802;28;20420;-70
2023/12/25 11:03:14;;;;;;;2.87;1.57;;;;;;;10.89;50.13;93849.34;5087808;28;20475;-70
2023/12/25 11:05:42;;;;;;;2.15;1.10;;;;;;;11.14;50.49;93838.66;5074300;28;20033;-70
2023/12/25 11:08:10;;;;;;;2.92;1.00;;;;;;;11.24;49.65;93845.16;5091180;28;20036;-70
2023/12/25 11:10:37;;;;;;;2.30;1.10;;;;;;;11.00;51.89;93849.91;5090003;28;20453;-70
2023/12/25 11:13:04;;;;;;;3.05;1.30;;;;;;;11.17;51.00;93854.31;5090637;28;20047;-71
2023/12/25 11:15:31;;;;;;;2.23;1.10;;;;;;;11.78;50.83;93844.09;5090257;28;20036;-70
2023/12/25 11:17:59;;;;;;;2.00;0.90;;;;;;;10.90;52.14;93835.16;5091025;28;20036;-70
2023/12/25 11:20:29;;;;;;;2.90;0.80;;;;;;;12.51;50.45;93827.53;5090790;28;20043;-71
2023/12/25 11:22:57;;;;;;;4.53;1.83;;;;;;;13.72;47.05;93817.31;5090054;28;20034;-70
2023/12/25 11:25:28;;;;;;;3.60;1.40;;;;;;;16.99;42.13;93812.25;5090397;28;20044;-70
2023/12/25 11:27:55;;;;;;;2.87;1.20;;;;;;;17.71;39.99;93812.75;5090345;28;20063;-71
2023/12/25 11:30:23;;;;;;;1.95;0.70;;;;;;;14.14;44.78;93818.00;5090758;28;20040;-70
2023/12/25 11:32:51;;;;;;;2.20;0.90;;;;;;;13.90;46.44;93808.50;5090000;28;20480;-70
2023/12/25 11:35:27;;;;;;;2.78;1.10;;;;;;;12.84;49.30;93824.75;5090376;28;20058;-69
2023/12/25 11:38:20;;;;;;;2.75;1.00;;;;;;;11.96;53.91;93821.75;5090188;28;20063;-70
2023/12/25 11:40:52;;;;;;;2.67;0.90;;;;;;;12.42;53.49;93825.41;5083151;28;20040;-70
2023/12/25 11:43:19;;;;;;;1.80;0.80;;;;;;;12.84;53.14;93809.03;5072181;28;20093;-71